Time;durP1;ratioP1;P1;durP2;ratioP2;P2;SDS_P1;SDS_P2;PMS_P1;PMS_P2;Temp;Humidity;BMP_temperature;BMP_pressure;BME280_temperature;BME280_humidity;BME280_pressure;Samples;Min_cycle;Max_cycle;Signal;HPM_P1;HPM_P2
2022/04/16 00:00:22;;;;;;;;;;;;;;;;;;5076800;28;19922;-78
2022/04/16 00:02:47;;;;;;;;;;;;;;;;;;5076586;28;20445;-78
2022/04/16 00:05:13;;;;;;;;;;;;;;;;;;5076421;28;19920;-78
2022/04/16 00:07:39;;;;;;;;;;;;;;;;;;5075980;28;20330;-78
2022/04/16 00:10:04;;;;;;;;;;;;;;;;;;5076106;28;19966;-78
2022/04/16 00:12:30;;;;;;;;;;;;;;;;;;5076107;28;19920;-78
2022/04/16 00:14:55;;;;;;;;;;;;;;;;;;5085213;28;19923;-78
2022/04/16 00:17:21;;;;;;;;;;;;;;;;;;5119698;28;19920;-78
2022/04/16 00:19:46;;;;;;;;;;;;;;;;;;5118427;28;20319;-79
2022/04/16 00:22:15;;;;;;;;;;;;;;;;;;5118087;28;19923;-78
2022/04/16 00:24:40;;;;;;;;;;;;;;;;;;5118005;28;19915;-79
2022/04/16 00:27:07;;;;;;;;;;;;;;;;;;5116062;28;20010;-79
2022/04/16 00:29:34;;;;;;;;;;;;;;;;;;5115858;28;19927;-79
2022/04/16 00:31:59;;;;;;;;;;;;;;;;;;5115981;28;19916;-80
2022/04/16 00:34:25;;;;;;;;;;;;;;;;;;5116062;28;19912;-79
2022/04/16 00:36:51;;;;;;;;;;;;;;;;;;5116030;28;19915;-80
2022/04/16 00:39:16;;;;;;;;;;;;;;;;;;5114895;28;19924;-79
2022/04/16 00:41:41;;;;;;;;;;;;;;;;;;5115129;28;20464;-79
2022/04/16 00:44:07;;;;;;;;;;;;;;;;;;5116942;28;19947;-78
2022/04/16 00:46:32;;;;;;;;;;;;;;;;;;5095955;28;19923;-78
2022/04/16 00:48:58;;;;;;;;;;;;;;;;;;5093954;28;19915;-78
2022/04/16 00:51:24;;;;;;;;;;;;;;;;;;5097302;28;19919;-78
2022/04/16 00:53:50;;;;;;;;;;;;;;;;;;5098392;28;19916;-78
2022/04/16 00:56:16;;;;;;;;;;;;;;;;;;5097990;28;19920;-78
2022/04/16 00:58:41;;;;;;;;;;;;;;;;;;5096563;28;19923;-78
2022/04/16 01:01:07;;;;;;;;;;;;;;;;;;5097820;28;19916;-78
2022/04/16 01:03:32;;;;;;;;;;;;;;;;;;5100651;28;20312;-78
2022/04/16 01:05:58;;;;;;;;;;;;;;;;;;5094870;28;19926;-78
2022/04/16 01:08:23;;;;;;;;;;;;;;;;;;5079479;28;19917;-78
2022/04/16 01:10:49;;;;;;;;;;;;;;;;;;5061608;28;19916;-78
2022/04/16 01:13:15;;;;;;;;;;;;;;;;;;5079268;28;19928;-79
2022/04/16 01:15:41;;;;;;;;;;;;;;;;;;5078793;28;20297;-78
2022/04/16 01:18:07;;;;;;;;;;;;;;;;;;5079359;28;20010;-78
2022/04/16 01:20:34;;;;;;;;;;;;;;;;;;5078099;28;19917;-78
2022/04/16 01:22:59;;;;;;;;;;;;;;;;;;5079252;28;19938;-78
2022/04/16 01:25:27;;;;;;;;;;;;;;;;;;5079048;28;19921;-79
2022/04/16 01:27:52;;;;;;;;;;;;;;;;;;5079525;28;19973;-78
2022/04/16 01:30:18;;;;;;;;;;;;;;;;;;5077417;28;19917;-78
2022/04/16 01:32:44;;;;;;;;;;;;;;;;;;5078725;28;19963;-78
2022/04/16 01:35:10;;;;;;;;;;;;;;;;;;5079335;28;19916;-78
2022/04/16 01:37:36;;;;;;;;;;;;;;;;;;5078406;28;20316;-78
2022/04/16 01:40:02;;;;;;;;;;;;;;;;;;5079814;28;19948;-78
2022/04/16 01:42:29;;;;;;;;;;;;;;;;;;5080140;28;19916;-78
2022/04/16 01:45:00;;;;;;;;;;;;;;;;;;5062821;28;19924;-79
2022/04/16 01:47:25;;;;;;;;;;;;;;;;;;5080077;28;20011;-79
2022/04/16 01:49:51;;;;;;;;;;;;;;;;;;5081711;28;20414;-79
2022/04/16 01:52:16;;;;;;;;;;;;;;;;;;5081922;28;19958;-79
2022/04/16 01:54:41;;;;;;;;;;;;;;;;;;5081271;28;19916;-78
2022/04/16 01:57:07;;;;;;;;;;;;;;;;;;5081344;28;19927;-79
2022/04/16 01:59:32;;;;;;;;;;;;;;;;;;5081029;28;19917;-78
2022/04/16 02:01:58;;;;;;;;;;;;;;;;;;5080300;28;20391;-79
2022/04/16 02:04:24;;;;;;;;;;;;;;;;;;5083940;28;19979;-79
2022/04/16 02:06:51;;;;;;;;;;;;;;;;;;5101175;28;20002;-78
2022/04/16 02:09:16;;;;;;;;;;;;;;;;;;5100790;28;19923;-78
2022/04/16 02:11:42;;;;;;;;;;;;;;;;;;5100695;28;19916;-79
2022/04/16 02:14:07;;;;;;;;;;;;;;;;;;5100647;28;19916;-78
2022/04/16 02:16:32;;;;;;;;;;;;;;;;;;5098483;28;19927;-78
2022/04/16 02:18:58;;;;;;;;;;;;;;;;;;5098996;28;19969;-78
2022/04/16 02:21:24;;;;;;;;;;;;;;;;;;5098689;28;19929;-78
2022/04/16 02:23:51;;;;;;;;;;;;;;;;;;5100345;28;20007;-78
2022/04/16 02:26:18;;;;;;;;;;;;;;;;;;5099897;28;19916;-79
2022/04/16 02:28:48;;;;;;;;;;;;;;;;;;5099887;28;19916;-79
2022/04/16 02:31:17;;;;;;;;;;;;;;;;;;5098355;28;19955;-78
2022/04/16 02:33:42;;;;;;;;;;;;;;;;;;5099720;28;19938;-79
2022/04/16 02:36:08;;;;;;;;;;;;;;;;;;5099562;28;19920;-78
2022/04/16 02:38:36;;;;;;;;;;;;;;;;;;5099871;28;19988;-79
2022/04/16 02:41:01;;;;;;;;;;;;;;;;;;5097665;28;19938;-79
2022/04/16 02:43:27;;;;;;;;;;;;;;;;;;5099723;28;19920;-78
2022/04/16 02:48:36;;;;;;;;;;;;;;;;;;5101216;28;19923;-79
2022/04/16 02:51:02;;;;;;;;;;;;;;;;;;5100981;28;19916;-79
2022/04/16 02:53:28;;;;;;;;;;;;;;;;;;5100407;28;19916;-78
2022/04/16 02:55:55;;;;;;;;;;;;;;;;;;5099811;28;20412;-79
2022/04/16 02:58:20;;;;;;;;;;;;;;;;;;5100786;28;19938;-79
2022/04/16 03:00:46;;;;;;;;;;;;;;;;;;5107210;28;19916;-79
2022/04/16 03:03:11;;;;;;;;;;;;;;;;;;5119876;28;19915;-78
2022/04/16 03:05:36;;;;;;;;;;;;;;;;;;5120119;28;19916;-79
2022/04/16 03:08:06;;;;;;;;;;;;;;;;;;5101196;28;19998;-78
2022/04/16 03:10:31;;;;;;;;;;;;;;;;;;5099717;28;19958;-78
2022/04/16 03:12:56;;;;;;;;;;;;;;;;;;5099028;28;19916;-78
2022/04/16 03:18:07;;;;;;;;;;;;;;;;;;5099324;28;19916;-78
2022/04/16 03:20:32;;;;;;;;;;;;;;;;;;5100081;28;19916;-78
2022/04/16 03:22:58;;;;;;;;;;;;;;;;;;5099911;28;19964;-79
2022/04/16 03:25:24;;;;;;;;;;;;;;;;;;5099418;28;19916;-78
2022/04/16 03:27:49;;;;;;;;;;;;;;;;;;5097620;28;20002;-78
2022/04/16 03:30:15;;;;;;;;;;;;;;;;;;5098504;28;20019;-78
2022/04/16 03:32:40;;;;;;;;;;;;;;;;;;5098476;28;20360;-78
2022/04/16 03:35:07;;;;;;;;;;;;;;;;;;5098292;28;19936;-78
2022/04/16 03:37:32;;;;;;;;;;;;;;;;;;5093410;28;19924;-78
2022/04/16 03:39:58;;;;;;;;;;;;;;;;;;5080936;28;19917;-78
2022/04/16 03:42:23;;;;;;;;;;;;;;;;;;5098372;28;19923;-78
2022/04/16 03:44:48;;;;;;;;;;;;;;;;;;5097901;28;19916;-78
2022/04/16 03:47:14;;;;;;;;;;;;;;;;;;5097932;28;20011;-78
2022/04/16 03:49:39;;;;;;;;;;;;;;;;;;5098464;28;19965;-78
2022/04/16 03:52:04;;;;;;;;;;;;;;;;;;5097935;28;19920;-78
2022/04/16 04:00:00;;;;;;;;;;;;;;;;;;5097391;28;20288;-78
2022/04/16 04:02:29;;;;;;;;;;;;;;;;;;5075632;28;20336;-78
2022/04/16 04:04:55;;;;;;;;;;;;;;;;;;5092880;28;20440;-78
2022/04/16 04:07:20;;;;;;;;;;;;;;;;;;5077225;28;19916;-78
2022/04/16 04:09:46;;;;;;;;;;;;;;;;;;5077829;28;19923;-78
2022/04/16 04:12:12;;;;;;;;;;;;;;;;;;5077681;28;19916;-79
2022/04/16 04:14:38;;;;;;;;;;;;;;;;;;5077381;28;20274;-78
2022/04/16 04:17:06;;;;;;;;;;;;;;;;;;5092415;28;20375;-78
2022/04/16 04:19:31;;;;;;;;;;;;;;;;;;5077032;28;19924;-79
2022/04/16 04:21:56;;;;;;;;;;;;;;;;;;5076558;28;19916;-78
2022/04/16 04:24:22;;;;;;;;;;;;;;;;;;5077015;28;19917;-78
2022/04/16 04:26:47;;;;;;;;;;;;;;;;;;5076957;28;19982;-77
2022/04/16 04:29:12;;;;;;;;;;;;;;;;;;5092029;28;19942;-77
2022/04/16 04:31:38;;;;;;;;;;;;;;;;;;5104833;28;20388;-77
2022/04/16 04:34:03;;;;;;;;;;;;;;;;;;5117215;28;19998;-77
2022/04/16 04:36:28;;;;;;;;;;;;;;;;;;5117265;28;19923;-78
2022/04/16 04:38:53;;;;;;;;;;;;;;;;;;5117154;28;20268;-78
2022/04/16 04:41:19;;;;;;;;;;;;;;;;;;5116804;28;19916;-78
2022/04/16 04:43:44;;;;;;;;;;;;;;;;;;5115129;28;20022;-78
2022/04/16 04:46:09;;;;;;;;;;;;;;;;;;5095633;28;19923;-78
2022/04/16 04:48:35;;;;;;;;;;;;;;;;;;5096704;28;19920;-78
2022/04/16 04:51:00;;;;;;;;;;;;;;;;;;5094821;28;19943;-78
2022/04/16 04:53:25;;;;;;;;;;;;;;;;;;5094945;28;19926;-78
2022/04/16 04:55:52;;;;;;;;;;;;;;;;;;5095602;28;19985;-78
2022/04/16 04:58:17;;;;;;;;;;;;;;;;;;5095703;28;19916;-78
2022/04/16 05:00:42;;;;;;;;;;;;;;;;;;5088096;28;19916;-78
2022/04/16 05:03:08;;;;;;;;;;;;;;;;;;5075470;28;20364;-78
2022/04/16 05:05:33;;;;;;;;;;;;;;;;;;5075564;28;19917;-78
2022/04/16 05:07:58;;;;;;;;;;;;;;;;;;5075383;28;19969;-77
2022/04/16 05:10:23;;;;;;;;;;;;;;;;;;5074980;28;19916;-78
2022/04/16 05:12:49;;;;;;;;;;;;;;;;;;5074500;28;19920;-78
2022/04/16 05:15:15;;;;;;;;;;;;;;;;;;5074580;28;19920;-78
2022/04/16 05:17:40;;;;;;;;;;;;;;;;;;5075214;28;19923;-78
2022/04/16 05:20:07;;;;;;;;;;;;;;;;;;5075164;28;20003;-78
2022/04/16 05:22:32;;;;;;;;;;;;;;;;;;5075361;28;19924;-78
2022/04/16 05:24:58;;;;;;;;;;;;;;;;;;5075481;28;19916;-78
2022/04/16 05:27:23;;;;;;;;;;;;;;;;;;5075353;28;19920;-78
2022/04/16 05:29:56;;;;;;;;;;;;;;;;;;5074755;28;19921;-77
2022/04/16 05:32:21;;;;;;;;;;;;;;;;;;5074525;28;19939;-78
2022/04/16 05:34:47;;;;;;;;;;;;;;;;;;5074245;28;20366;-77
2022/04/16 05:37:12;;;;;;;;;;;;;;;;;;5078447;28;20374;-77
2022/04/16 05:39:38;;;;;;;;;;;;;;;;;;5079834;28;19923;-78
2022/04/16 05:42:04;;;;;;;;;;;;;;;;;;5079497;28;20012;-78
2022/04/16 05:44:29;;;;;;;;;;;;;;;;;;5083947;28;19964;-78
2022/04/16 05:46:54;;;;;;;;;;;;;;;;;;5100582;28;19920;-78
2022/04/16 05:49:19;;;;;;;;;;;;;;;;;;5100867;28;20311;-78
2022/04/16 05:51:45;;;;;;;;;;;;;;;;;;5100361;28;19961;-78
2022/04/16 05:54:10;;;;;;;;;;;;;;;;;;5093035;28;19923;-78
2022/04/16 05:56:35;;;;;;;;;;;;;;;;;;5088665;28;20290;-79
2022/04/16 05:59:01;;;;;;;;;;;;;;;;;;5087019;28;19923;-78
2022/04/16 06:01:26;;;;;;;;;;;;;;;;;;5086966;28;19986;-78
2022/04/16 06:03:52;;;;;;;;;;;;;;;;;;5086935;28;19920;-78
2022/04/16 06:06:17;;;;;;;;;;;;;;;;;;5090444;28;20378;-78
2022/04/16 06:08:42;;;;;;;;;;;;;;;;;;5082444;28;20008;-78
2022/04/16 06:11:08;;;;;;;;;;;;;;;;;;5084543;28;19923;-78
2022/04/16 06:13:34;;;;;;;;;;;;;;;;;;5071443;28;19960;-77
2022/04/16 06:15:59;;;;;;;;;;;;;;;;;;5086097;28;19920;-77
2022/04/16 06:18:25;;;;;;;;;;;;;;;;;;5092525;28;19943;-77
2022/04/16 06:20:50;;;;;;;;;;;;;;;;;;5090256;28;19916;-77
2022/04/16 06:23:15;;;;;;;;;;;;;;;;;;5086475;28;19923;-77
2022/04/16 06:25:41;;;;;;;;;;;;;;;;;;5084748;28;19924;-77
2022/04/16 06:28:06;;;;;;;;;;;;;;;;;;5081893;28;19927;-77
2022/04/16 06:30:31;;;;;;;;;;;;;;;;;;5088145;28;19923;-81
2022/04/16 06:32:57;;;;;;;;;;;;;;;;;;5087908;28;19922;-81
2022/04/16 06:35:22;;;;;;;;;;;;;;;;;;5081017;28;19923;-81
2022/04/16 06:37:47;;;;;;;;;;;;;;;;;;5083359;28;19916;-81
2022/04/16 06:40:13;;;;;;;;;;;;;;;;;;5095086;28;20397;-81
2022/04/16 06:42:39;;;;;;;;;;;;;;;;;;5097446;28;20007;-81
2022/04/16 06:45:08;;;;;;;;;;;;;;;;;;5097292;28;19916;-81
2022/04/16 06:47:33;;;;;;;;;;;;;;;;;;5099884;28;20278;-81
2022/04/16 06:49:59;;;;;;;;;;;;;;;;;;5091482;28;19917;-81
2022/04/16 06:52:24;;;;;;;;;;;;;;;;;;5086147;28;19920;-78
2022/04/16 06:54:50;;;;;;;;;;;;;;;;;;5088774;28;19917;-78
2022/04/16 06:57:15;;;;;;;;;;;;;;;;;;5088174;28;20440;-78
2022/04/16 06:59:41;;;;;;;;;;;;;;;;;;5091585;28;19916;-77
2022/04/16 07:02:07;;;;;;;;;;;;;;;;;;5085238;28;19916;-78
2022/04/16 07:04:32;;;;;;;;;;;;;;;;;;5092102;28;20246;-79
2022/04/16 07:06:58;;;;;;;;;;;;;;;;;;5083246;28;19916;-78
2022/04/16 07:09:23;;;;;;;;;;;;;;;;;;5090453;28;19916;-78
2022/04/16 07:11:49;;;;;;;;;;;;;;;;;;5091358;28;19920;-80
2022/04/16 07:14:15;;;;;;;;;;;;;;;;;;5088602;28;19999;-78
2022/04/16 07:16:40;;;;;;;;;;;;;;;;;;5087315;28;19920;-80
2022/04/16 07:19:06;;;;;;;;;;;;;;;;;;5091674;28;19916;-81
2022/04/16 07:21:31;;;;;;;;;;;;;;;;;;5092763;28;19920;-80
2022/04/16 07:23:56;;;;;;;;;;;;;;;;;;5088744;28;19916;-79
2022/04/16 07:26:21;;;;;;;;;;;;;;;;;;5091701;28;19916;-79
2022/04/16 07:28:47;;;;;;;;;;;;;;;;;;5095370;28;19999;-83
2022/04/16 07:31:12;;;;;;;;;;;;;;;;;;5091349;28;20370;-84
2022/04/16 07:33:37;;;;;;;;;;;;;;;;;;5095595;28;20440;-85
2022/04/16 07:36:03;;;;;;;;;;;;;;;;;;5090572;28;19920;-86
2022/04/16 07:38:28;;;;;;;;;;;;;;;;;;5085554;28;19916;-83
2022/04/16 07:40:54;;;;;;;;;;;;;;;;;;5087733;28;20374;-80
2022/04/16 07:43:20;;;;;;;;;;;;;;;;;;5093087;28;19916;-82
2022/04/16 07:45:45;;;;;;;;;;;;;;;;;;5093105;28;19958;-78
2022/04/16 07:48:10;;;;;;;;;;;;;;;;;;5087897;28;19917;-79
2022/04/16 07:50:36;;;;;;;;;;;;;;;;;;5084253;28;20366;-77
2022/04/16 07:53:02;;;;;;;;;;;;;;;;;;5085050;28;19928;-77
2022/04/16 07:55:28;;;;;;;;;;;;;;;;;;5092208;28;20343;-82
2022/04/16 07:57:54;;;;;;;;;;;;;;;;;;5094021;28;19924;-85
2022/04/16 08:00:19;;;;;;;;;;;;;;;;;;5099236;28;19968;-82
2022/04/16 08:02:45;;;;;;;;;;;;;;;;;;5081231;28;19920;-84
2022/04/16 08:05:10;;;;;;;;;;;;;;;;;;5071188;28;20007;-83
2022/04/16 08:07:35;;;;;;;;;;;;;;;;;;5084592;28;19917;-86
2022/04/16 08:10:00;;;;;;;;;;;;;;;;;;5080020;28;19946;-82
2022/04/16 08:12:26;;;;;;;;;;;;;;;;;;5103160;28;19970;-84
2022/04/16 08:14:52;;;;;;;;;;;;;;;;;;5103574;28;19958;-82
2022/04/16 08:17:17;;;;;;;;;;;;;;;;;;5105406;28;19916;-78
2022/04/16 08:19:43;;;;;;;;;;;;;;;;;;5098911;28;19974;-80
2022/04/16 08:22:11;;;;;;;;;;;;;;;;;;5103779;28;19923;-81
2022/04/16 08:27:02;;;;;;;;;;;;;;;;;;5101359;28;20389;-78
2022/04/16 08:29:27;;;;;;;;;;;;;;;;;;5099113;28;19931;-78
2022/04/16 08:31:53;;;;;;;;;;;;;;;;;;5099243;28;20297;-78
2022/04/16 08:34:18;;;;;;;;;;;;;;;;;;5092849;28;19916;-79
2022/04/16 08:36:43;;;;;;;;;;;;;;;;;;5090586;28;19930;-78
2022/04/16 08:39:09;;;;;;;;;;;;;;;;;;5083773;28;19923;-80
2022/04/16 08:41:34;;;;;;;;;;;;;;;;;;5097932;28;19920;-77
2022/04/16 08:43:59;;;;;;;;;;;;;;;;;;5092285;28;19916;-79
2022/04/16 08:46:30;;;;;;;;;;;;;;;;;;5099588;28;19920;-83
2022/04/16 08:48:57;;;;;;;;;;;;;;;;;;5091271;28;20405;-82
2022/04/16 08:51:22;;;;;;;;;;;;;;;;;;5090956;28;19919;-81
2022/04/16 08:53:48;;;;;;;;;;;;;;;;;;5079842;28;19924;-82
2022/04/16 08:56:13;;;;;;;;;;;;;;;;;;5090576;28;19943;-83
2022/04/16 08:58:38;;;;;;;;;;;;;;;;;;5087209;28;19922;-80
2022/04/16 09:01:04;;;;;;;;;;;;;;;;;;5071602;28;19916;-81
2022/04/16 09:03:36;;;;;;;;;;;;;;;;;;5092657;28;19919;-82
2022/04/16 09:06:02;;;;;;;;;;;;;;;;;;5100795;28;19944;-82
2022/04/16 09:12:20;;;;;;;;;;;;;;;;;;5094848;28;19923;-81
2022/04/16 09:14:46;;;;;;;;;;;;;;;;;;5088713;28;20305;-80
2022/04/16 09:17:17;;;;;;;;;;;;;;;;;;5096451;28;19920;-83
2022/04/16 09:19:43;;;;;;;;;;;;;;;;;;5100815;28;19916;-83
2022/04/16 09:22:09;;;;;;;;;;;;;;;;;;5099133;28;19965;-83
2022/04/16 09:24:44;;;;;;;;;;;;;;;;;;5077521;28;19920;-83
2022/04/16 09:27:09;;;;;;;;;;;;;;;;;;5092183;28;20023;-84
2022/04/16 09:29:35;;;;;;;;;;;;;;;;;;5087066;28;20346;-84
2022/04/16 09:32:00;;;;;;;;;;;;;;;;;;5097687;28;19970;-83
2022/04/16 09:34:26;;;;;;;;;;;;;;;;;;5111193;28;19916;-84
2022/04/16 09:36:54;;;;;;;;;;;;;;;;;;5109150;28;19942;-84
2022/04/16 09:39:22;;;;;;;;;;;;;;;;;;5098397;28;20413;-83
2022/04/16 09:41:49;;;;;;;;;;;;;;;;;;5103249;28;19988;-83
2022/04/16 09:44:20;;;;;;;;;;;;;;;;;;5096015;28;19920;-83
2022/04/16 09:46:46;;;;;;;;;;;;;;;;;;5098604;28;19920;-83
2022/04/16 09:49:12;;;;;;;;;;;;;;;;;;5103506;28;19935;-82
2022/04/16 09:51:40;;;;;;;;;;;;;;;;;;5096541;28;19917;-83
2022/04/16 09:54:06;;;;;;;;;;;;;;;;;;5086218;28;19920;-81
2022/04/16 09:56:33;;;;;;;;;;;;;;;;;;5096243;28;20404;-82
2022/04/16 09:59:01;;;;;;;;;;;;;;;;;;5097072;28;20398;-84
2022/04/16 10:01:28;;;;;;;;;;;;;;;;;;5088592;28;19921;-84
2022/04/16 10:03:53;;;;;;;;;;;;;;;;;;5095106;28;20082;-83
2022/04/16 10:06:19;;;;;;;;;;;;;;;;;;5082635;28;19951;-83
2022/04/16 10:08:45;;;;;;;;;;;;;;;;;;5099276;28;19941;-82
2022/04/16 10:11:19;;;;;;;;;;;;;;;;;;5092699;28;20411;-80
2022/04/16 10:13:48;;;;;;;;;;;;;;;;;;5097220;28;19922;-85
2022/04/16 10:16:17;;;;;;;;;;;;;;;;;;5100411;28;19920;-80
2022/04/16 10:18:43;;;;;;;;;;;;;;;;;;5089745;28;20348;-77
2022/04/16 10:21:14;;;;;;;;;;;;;;;;;;5089121;28;19954;-81
2022/04/16 10:23:39;;;;;;;;;;;;;;;;;;5081196;28;19978;-78
2022/04/16 10:26:06;;;;;;;;;;;;;;;;;;5102133;28;20328;-80
2022/04/16 10:28:33;;;;;;;;;;;;;;;;;;5099368;28;19916;-77
2022/04/16 10:30:58;;;;;;;;;;;;;;;;;;5098329;28;19998;-78
2022/04/16 10:33:25;;;;;;;;;;;;;;;;;;5103365;28;19966;-76
2022/04/16 10:35:56;;;;;;;;;;;;;;;;;;5096468;28;19920;-77
2022/04/16 10:38:23;;;;;;;;;;;;;;;;;;5108834;28;19923;-77
2022/04/16 10:40:59;;;;;;;;;;;;;;;;;;5094847;28;19916;-76
2022/04/16 10:43:32;;;;;;;;;;;;;;;;;;5094106;28;19919;-76
2022/04/16 10:46:02;;;;;;;;;;;;;;;;;;5093723;28;20370;-77
2022/04/16 10:48:28;;;;;;;;;;;;;;;;;;5095384;28;19916;-76
2022/04/16 10:50:55;;;;;;;;;;;;;;;;;;5095915;28;20378;-77
2022/04/16 10:53:32;;;;;;;;;;;;;;;;;;5094024;28;19916;-76
2022/04/16 10:56:06;;;;;;;;;;;;;;;;;;5091691;28;19927;-77
2022/04/16 10:58:31;;;;;;;;;;;;;;;;;;5092160;28;19916;-77
2022/04/16 11:01:09;;;;;;;;;;;;;;;;;;5090733;28;20504;-77
2022/04/16 11:03:42;;;;;;;;;;;;;;;;;;5091626;28;19920;-77
2022/04/16 11:06:07;;;;;;;;;;;;;;;;;;5091882;28;19923;-76
2022/04/16 11:08:33;;;;;;;;;;;;;;;;;;5093391;28;20002;-76
2022/04/16 11:10:58;;;;;;;;;;;;;;;;;;5095497;28;20370;-76
2022/04/16 11:13:25;;;;;;;;;;;;;;;;;;5095309;28;19970;-76
2022/04/16 11:15:51;;;;;;;;;;;;;;;;;;5093702;28;19973;-76
2022/04/16 11:18:18;;;;;;;;;;;;;;;;;;5095259;28;19915;-76
2022/04/16 11:20:43;;;;;;;;;;;;;;;;;;5095312;28;19912;-76
2022/04/16 11:23:09;;;;;;;;;;;;;;;;;;5095168;28;19923;-76
2022/04/16 11:34:14;;;;;;;;;;;;;;;;;;5095205;28;20171;-76
2022/04/16 11:36:43;;;;;;;;;;;;;;;;;;5094806;28;19928;-77
2022/04/16 11:39:24;;;;;;;;;;;;;;;;;;5095015;28;19916;-76
2022/04/16 11:41:53;;;;;;;;;;;;;;;;;;5094903;28;20362;-76
2022/04/16 11:44:29;;;;;;;;;;;;;;;;;;5094893;28;19919;-77
2022/04/16 11:46:54;;;;;;;;;;;;;;;;;;5094332;28;20320;-77
2022/04/16 11:49:19;;;;;;;;;;;;;;;;;;5094702;28;19967;-77
2022/04/16 11:51:44;;;;;;;;;;;;;;;;;;5094577;28;19920;-76
2022/04/16 11:54:10;;;;;;;;;;;;;;;;;;5095055;28;19969;-77
2022/04/16 11:56:35;;;;;;;;;;;;;;;;;;5094207;28;19920;-77
2022/04/16 11:59:01;;;;;;;;;;;;;;;;;;5076400;28;20435;-77
2022/04/16 12:01:26;;;;;;;;;;;;;;;;;;5089643;28;19920;-76
2022/04/16 12:03:52;;;;;;;;;;;;;;;;;;5090195;28;19943;-77
2022/04/16 12:06:17;;;;;;;;;;;;;;;;;;5094502;28;19975;-77
2022/04/16 12:08:43;;;;;;;;;;;;;;;;;;5094499;28;19969;-77
2022/04/16 12:11:09;;;;;;;;;;;;;;;;;;5093253;28;19916;-77
2022/04/16 12:13:36;;;;;;;;;;;;;;;;;;5094538;28;20341;-76
2022/04/16 12:16:05;;;;;;;;;;;;;;;;;;5094077;28;19943;-76
2022/04/16 12:18:35;;;;;;;;;;;;;;;;;;5093927;28;20002;-77
2022/04/16 12:21:05;;;;;;;;;;;;;;;;;;5094290;28;19967;-76
2022/04/16 12:23:30;;;;;;;;;;;;;;;;;;5092947;28;19951;-76
2022/04/16 12:26:07;;;;;;;;;;;;;;;;;;5094104;28;20372;-78
2022/04/16 12:28:34;;;;;;;;;;;;;;;;;;5092851;28;20007;-76
2022/04/16 12:31:00;;;;;;;;;;;;;;;;;;5094000;28;19923;-77
2022/04/16 12:33:25;;;;;;;;;;;;;;;;;;5093927;28;19916;-76
2022/04/16 12:35:55;;;;;;;;;;;;;;;;;;5093958;28;19920;-77
2022/04/16 12:38:21;;;;;;;;;;;;;;;;;;5092833;28;19916;-76
2022/04/16 12:40:46;;;;;;;;;;;;;;;;;;5093872;28;19961;-76
2022/04/16 12:43:11;;;;;;;;;;;;;;;;;;5092680;28;20262;-77
2022/04/16 12:45:37;;;;;;;;;;;;;;;;;;5092653;28;19916;-77
2022/04/16 12:48:02;;;;;;;;;;;;;;;;;;5093927;28;19923;-76
2022/04/16 12:50:29;;;;;;;;;;;;;;;;;;5094015;28;19916;-77
2022/04/16 12:52:55;;;;;;;;;;;;;;;;;;5094032;28;19920;-76
2022/04/16 12:55:20;;;;;;;;;;;;;;;;;;5093922;28;19923;-77
2022/04/16 12:57:46;;;;;;;;;;;;;;;;;;5092958;28;19929;-76
2022/04/16 13:00:12;;;;;;;;;;;;;;;;;;5093852;28;19938;-77
2022/04/16 13:02:44;;;;;;;;;;;;;;;;;;5092474;28;19916;-77
2022/04/16 13:05:10;;;;;;;;;;;;;;;;;;5091335;28;19917;-77
2022/04/16 13:07:36;;;;;;;;;;;;;;;;;;5092803;28;19920;-77
2022/04/16 13:10:02;;;;;;;;;;;;;;;;;;5089972;28;20544;-78
2022/04/16 13:12:29;;;;;;;;;;;;;;;;;;5093804;28;20018;-77
2022/04/16 13:14:54;;;;;;;;;;;;;;;;;;5092467;28;20381;-77
2022/04/16 13:17:19;;;;;;;;;;;;;;;;;;5093754;28;20431;-77
2022/04/16 13:19:45;;;;;;;;;;;;;;;;;;5093616;28;19927;-76
2022/04/16 13:22:10;;;;;;;;;;;;;;;;;;5093607;28;19923;-76
2022/04/16 13:24:36;;;;;;;;;;;;;;;;;;5093510;28;20382;-76
2022/04/16 13:27:03;;;;;;;;;;;;;;;;;;5093123;28;19916;-76
2022/04/16 13:29:29;;;;;;;;;;;;;;;;;;5092635;28;20274;-76
2022/04/16 13:31:56;;;;;;;;;;;;;;;;;;5095718;28;19916;-79
2022/04/16 13:34:31;;;;;;;;;;;;;;;;;;5096721;28;19927;-80
2022/04/16 13:36:57;;;;;;;;;;;;;;;;;;5097169;28;20279;-85
2022/04/16 13:42:06;;;;;;;;;;;;;;;;;;5097222;28;19920;-76
2022/04/16 13:44:31;;;;;;;;;;;;;;;;;;5094671;28;19916;-77
2022/04/16 13:46:57;;;;;;;;;;;;;;;;;;5096397;28;19923;-77
2022/04/16 13:49:22;;;;;;;;;;;;;;;;;;5093557;28;19916;-77
2022/04/16 13:51:47;;;;;;;;;;;;;;;;;;5092205;28;19923;-77
2022/04/16 13:54:13;;;;;;;;;;;;;;;;;;5092526;28;19948;-77
2022/04/16 13:56:39;;;;;;;;;;;;;;;;;;5091612;28;20007;-76
2022/04/16 13:59:06;;;;;;;;;;;;;;;;;;5096988;28;19959;-76
2022/04/16 14:01:32;;;;;;;;;;;;;;;;;;5096413;28;20258;-76
2022/04/16 14:03:58;;;;;;;;;;;;;;;;;;5096744;28;20014;-76
2022/04/16 14:06:23;;;;;;;;;;;;;;;;;;5096591;28;20061;-76
2022/04/16 14:08:48;;;;;;;;;;;;;;;;;;5096682;28;19931;-76
2022/04/16 14:11:15;;;;;;;;;;;;;;;;;;5096950;28;19916;-76
2022/04/16 14:13:43;;;;;;;;;;;;;;;;;;5096952;28;19917;-77
2022/04/16 14:16:11;;;;;;;;;;;;;;;;;;5102156;28;19972;-78
2022/04/16 14:18:37;;;;;;;;;;;;;;;;;;5098329;28;19923;-80
2022/04/16 14:21:04;;;;;;;;;;;;;;;;;;5104880;28;19939;-79
2022/04/16 14:23:30;;;;;;;;;;;;;;;;;;5103272;28;20341;-78
2022/04/16 14:25:56;;;;;;;;;;;;;;;;;;5096656;28;19920;-76
2022/04/16 14:28:21;;;;;;;;;;;;;;;;;;5094798;28;20007;-77
2022/04/16 14:30:46;;;;;;;;;;;;;;;;;;5097848;28;19916;-76
2022/04/16 14:33:12;;;;;;;;;;;;;;;;;;5095023;28;20437;-76
2022/04/16 14:35:38;;;;;;;;;;;;;;;;;;5096712;28;19920;-76
2022/04/16 14:38:10;;;;;;;;;;;;;;;;;;5096276;28;20271;-77
2022/04/16 14:40:36;;;;;;;;;;;;;;;;;;5096341;28;20369;-77
2022/04/16 14:43:01;;;;;;;;;;;;;;;;;;5095982;28;19923;-77
2022/04/16 14:45:27;;;;;;;;;;;;;;;;;;5094577;28;20012;-76
2022/04/16 14:47:52;;;;;;;;;;;;;;;;;;5095773;28;19920;-76
2022/04/16 14:50:17;;;;;;;;;;;;;;;;;;5095896;28;19916;-76
2022/04/16 14:52:42;;;;;;;;;;;;;;;;;;5094580;28;19930;-76
2022/04/16 14:55:08;;;;;;;;;;;;;;;;;;5095790;28;19959;-77
2022/04/16 14:57:34;;;;;;;;;;;;;;;;;;5095386;28;19920;-76
2022/04/16 14:59:59;;;;;;;;;;;;;;;;;;5094501;28;19916;-77
2022/04/16 15:02:25;;;;;;;;;;;;;;;;;;5089615;28;19970;-76
2022/04/16 15:04:51;;;;;;;;;;;;;;;;;;5075289;28;19919;-76
2022/04/16 15:07:18;;;;;;;;;;;;;;;;;;5075450;28;20003;-76
2022/04/16 15:09:44;;;;;;;;;;;;;;;;;;5073245;28;19988;-76
2022/04/16 15:12:09;;;;;;;;;;;;;;;;;;5075386;28;19921;-76
2022/04/16 15:14:35;;;;;;;;;;;;;;;;;;5075581;28;19959;-76
2022/04/16 15:17:00;;;;;;;;;;;;;;;;;;5074085;28;20011;-76
2022/04/16 15:19:26;;;;;;;;;;;;;;;;;;5074859;28;20011;-76
2022/04/16 15:21:52;;;;;;;;;;;;;;;;;;5075553;28;19923;-78
2022/04/16 15:24:17;;;;;;;;;;;;;;;;;;5075520;28;19917;-74
2022/04/16 15:26:43;;;;;;;;;;;;;;;;;;5074613;28;20290;-75
2022/04/16 15:29:08;;;;;;;;;;;;;;;;;;5074816;28;19924;-73
2022/04/16 15:31:36;;;;;;;;;;;;;;;;;;5075650;28;19951;-75
2022/04/16 15:34:07;;;;;;;;;;;;;;;;;;5093602;28;19917;-74
2022/04/16 15:36:33;;;;;;;;;;;;;;;;;;5094943;28;19973;-76
2022/04/16 15:38:58;;;;;;;;;;;;;;;;;;5094985;28;19919;-75
2022/04/16 15:41:24;;;;;;;;;;;;;;;;;;5094410;28;19916;-73
2022/04/16 15:43:50;;;;;;;;;;;;;;;;;;5094729;28;19923;-75
2022/04/16 15:46:15;;;;;;;;;;;;;;;;;;5094475;28;20276;-75
2022/04/16 15:48:40;;;;;;;;;;;;;;;;;;5093443;28;19916;-75
2022/04/16 15:51:05;;;;;;;;;;;;;;;;;;5094745;28;19917;-75
2022/04/16 15:53:32;;;;;;;;;;;;;;;;;;5094720;28;19923;-75
2022/04/16 15:55:58;;;;;;;;;;;;;;;;;;5092965;28;20194;-75
2022/04/16 15:58:23;;;;;;;;;;;;;;;;;;5092174;28;20378;-76
2022/04/16 16:00:48;;;;;;;;;;;;;;;;;;5092019;28;19916;-75
2022/04/16 16:03:14;;;;;;;;;;;;;;;;;;5090674;28;19916;-75
2022/04/16 16:05:40;;;;;;;;;;;;;;;;;;5092079;28;20015;-75
2022/04/16 16:08:05;;;;;;;;;;;;;;;;;;5086434;28;20305;-75
2022/04/16 16:10:30;;;;;;;;;;;;;;;;;;5072375;28;19912;-74
2022/04/16 16:12:56;;;;;;;;;;;;;;;;;;5073662;28;19923;-76
2022/04/16 16:15:21;;;;;;;;;;;;;;;;;;5072508;28;19923;-76
2022/04/16 16:17:48;;;;;;;;;;;;;;;;;;5072975;28;19920;-77
2022/04/16 16:20:13;;;;;;;;;;;;;;;;;;5086741;28;19923;-77
2022/04/16 16:22:39;;;;;;;;;;;;;;;;;;5093018;28;19916;-77
2022/04/16 16:25:04;;;;;;;;;;;;;;;;;;5092811;28;19965;-76
2022/04/16 16:27:30;;;;;;;;;;;;;;;;;;5094225;28;19924;-75
2022/04/16 16:29:56;;;;;;;;;;;;;;;;;;5093255;28;20019;-76
2022/04/16 16:32:25;;;;;;;;;;;;;;;;;;5092790;28;19923;-75
2022/04/16 16:34:50;;;;;;;;;;;;;;;;;;5092670;28;19924;-74
2022/04/16 16:37:16;;;;;;;;;;;;;;;;;;5083737;28;19921;-76
2022/04/16 16:39:41;;;;;;;;;;;;;;;;;;5073597;28;20293;-76
2022/04/16 16:42:06;;;;;;;;;;;;;;;;;;5073641;28;20378;-75
2022/04/16 16:44:32;;;;;;;;;;;;;;;;;;5073560;28;19920;-76
2022/04/16 16:46:57;;;;;;;;;;;;;;;;;;5073611;28;20454;-76
2022/04/16 16:49:22;;;;;;;;;;;;;;;;;;5072836;28;19924;-78
2022/04/16 16:51:48;;;;;;;;;;;;;;;;;;5073664;28;20373;-76
2022/04/16 16:54:14;;;;;;;;;;;;;;;;;;5072589;28;19917;-75
2022/04/16 16:56:39;;;;;;;;;;;;;;;;;;5072024;28;19921;-78
2022/04/16 16:59:07;;;;;;;;;;;;;;;;;;5073432;28;19927;-76
2022/04/16 17:01:36;;;;;;;;;;;;;;;;;;5097390;28;19920;-76
2022/04/16 17:06:46;;;;;;;;;;;;;;;;;;5113766;28;19920;-77
2022/04/16 17:09:11;;;;;;;;;;;;;;;;;;5113791;28;19923;-76